Time;durP1;ratioP1;P1;durP2;ratioP2;P2;SDS_P1;SDS_P2;PMS_P1;PMS_P2;Temp;Humidity;BMP_temperature;BMP_pressure;BME280_temperature;BME280_humidity;BME280_pressure;Samples;Min_cycle;Max_cycle;Signal;HPM_P1;HPM_P2
2022/03/21 00:01:02;;;;;;;88.93;35.97;;;;;;;-3.90;100.00;102837.16;1818920;79;21488;-62
2022/03/21 00:03:31;;;;;;;80.93;34.93;;;;;;;-4.00;100.00;102837.45;1788817;80;21054;-63
2022/03/21 00:06:00;;;;;;;82.23;33.53;;;;;;;-4.11;100.00;102840.27;1791350;79;21043;-63
2022/03/21 00:08:30;;;;;;;82.27;34.77;;;;;;;-4.12;100.00;102827.59;1819057;79;21086;-63
2022/03/21 00:10:58;;;;;;;88.67;36.33;;;;;;;-4.11;100.00;102824.31;1791448;79;21008;-63
2022/03/21 00:13:28;;;;;;;87.07;36.00;;;;;;;-4.12;100.00;102823.42;1818806;79;21530;-63
2022/03/21 00:15:57;;;;;;;74.60;33.00;;;;;;;-4.10;100.00;102816.82;1791444;80;20968;-63
2022/03/21 00:18:27;;;;;;;81.07;34.73;;;;;;;-4.14;100.00;102812.41;1818812;79;21199;-63
2022/03/21 00:20:56;;;;;;;80.57;34.97;;;;;;;-4.11;100.00;102804.19;1791505;79;21058;-62
2022/03/21 00:23:25;;;;;;;85.37;36.90;;;;;;;-4.16;100.00;102811.47;1818791;79;20996;-61
2022/03/21 00:25:54;;;;;;;83.40;36.23;;;;;;;-4.20;100.00;102807.06;1791471;79;21315;-62
2022/03/21 00:28:22;;;;;;;87.67;36.00;;;;;;;-4.23;100.00;102797.70;1820531;78;21036;-62
2022/03/21 00:30:51;;;;;;;84.80;36.13;;;;;;;-4.25;100.00;102794.25;1797843;80;21023;-62
2022/03/21 00:33:18;;;;;;;79.67;34.60;;;;;;;-4.26;100.00;102800.44;1831076;78;21015;-62
2022/03/21 00:35:50;;;;;;;77.03;33.07;;;;;;;-4.32;100.00;102789.69;1798301;80;21084;-62
2022/03/21 00:38:20;;;;;;;76.90;31.70;;;;;;;-4.31;100.00;102791.41;1831123;78;21070;-61
2022/03/21 00:40:48;;;;;;;68.47;30.73;;;;;;;-4.32;100.00;102789.69;1798172;80;21080;-62
2022/03/21 00:43:23;;;;;;;64.33;29.33;;;;;;;-4.29;100.00;102784.81;1831016;78;21007;-62
2022/03/21 00:45:53;;;;;;;71.80;30.27;;;;;;;-4.33;100.00;102782.91;1798945;80;21043;-62
2022/03/21 00:48:22;;;;;;;74.53;31.20;;;;;;;-4.34;100.00;102774.91;1831069;78;21054;-61
2022/03/21 00:50:53;;;;;;;67.07;29.77;;;;;;;-4.27;100.00;102777.36;1798131;80;21050;-62
2022/03/21 00:53:21;;;;;;;70.07;30.90;;;;;;;-4.27;100.00;102781.98;1831054;78;21011;-61
2022/03/21 00:55:50;;;;;;;68.27;30.73;;;;;;;-4.30;100.00;102778.06;1798265;80;21476;-61
2022/03/21 00:58:18;;;;;;;61.83;28.53;;;;;;;-4.41;100.00;102782.90;1831008;78;20955;-61
2022/03/21 01:00:45;;;;;;;66.47;28.87;;;;;;;-4.50;100.00;102788.30;1798342;80;21023;-62
2022/03/21 01:03:14;;;;;;;66.27;27.70;;;;;;;-4.60;100.00;102782.67;1830665;78;21012;-61
2022/03/21 01:05:42;;;;;;;59.90;28.47;;;;;;;-4.62;100.00;102782.61;1798894;80;21027;-62
2022/03/21 01:08:09;;;;;;;58.80;27.73;;;;;;;-4.64;100.00;102786.69;1830848;78;21006;-61
2022/03/21 01:10:38;;;;;;;61.53;27.50;;;;;;;-4.67;100.00;102789.88;1798363;80;21546;-62
2022/03/21 01:13:06;;;;;;;59.00;27.13;;;;;;;-4.66;100.00;102789.11;1830796;78;21035;-62
2022/03/21 01:15:34;;;;;;;66.83;28.70;;;;;;;-4.58;100.00;102788.27;1798186;80;21050;-62
2022/03/21 01:18:03;;;;;;;62.73;28.30;;;;;;;-4.55;100.00;102791.34;1830728;78;21015;-61
2022/03/21 01:20:31;;;;;;;64.60;29.17;;;;;;;-4.63;100.00;102784.23;1798186;80;21028;-62
2022/03/21 01:22:58;;;;;;;66.80;31.30;;;;;;;-4.67;100.00;102787.75;1831039;78;21091;-61
2022/03/21 01:25:27;;;;;;;72.33;31.30;;;;;;;-4.69;100.00;102788.92;1798179;79;21047;-62
2022/03/21 01:27:55;;;;;;;72.63;31.73;;;;;;;-4.71;100.00;102782.95;1820005;78;21025;-61
2022/03/21 01:30:22;;;;;;;69.33;31.87;;;;;;;-4.73;100.00;102784.51;1810624;79;21127;-61
2022/03/21 01:32:49;;;;;;;75.60;33.30;;;;;;;-4.67;100.00;102787.75;1810690;79;21030;-62
2022/03/21 01:35:18;;;;;;;71.47;31.80;;;;;;;-4.74;100.00;102790.73;1810904;79;21176;-62
2022/03/21 01:37:46;;;;;;;65.07;27.63;;;;;;;-4.79;100.00;102792.97;1810602;79;21016;-62
2022/03/21 01:40:15;;;;;;;60.27;27.03;;;;;;;-4.90;100.00;102800.31;1810814;79;20992;-62
2022/03/21 01:42:46;;;;;;;60.20;28.40;;;;;;;-4.91;100.00;102796.91;1810833;79;21530;-62
2022/03/21 01:45:14;;;;;;;63.73;28.43;;;;;;;-4.87;100.00;102783.73;1811103;79;21540;-62
2022/03/21 01:47:42;;;;;;;67.10;28.70;;;;;;;-4.85;100.00;102788.86;1810856;79;21011;-62
2022/03/21 01:50:12;;;;;;;57.33;25.53;;;;;;;-4.81;100.00;102780.70;1810559;79;21051;-62
2022/03/21 01:52:43;;;;;;;65.10;27.53;;;;;;;-4.90;100.00;102785.23;1810931;79;21050;-62
2022/03/21 01:57:59;;;;;;;61.07;26.53;;;;;;;-4.89;100.00;102770.62;1811005;79;21492;-62
2022/03/21 02:00:29;;;;;;;62.33;28.17;;;;;;;-4.89;100.00;102771.88;1810936;79;21019;-62
2022/03/21 02:02:57;;;;;;;56.03;25.90;;;;;;;-4.90;100.00;102758.86;1810964;79;21008;-62
2022/03/21 02:05:25;;;;;;;66.83;27.07;;;;;;;-4.87;100.00;102752.34;1810546;79;21016;-62
2022/03/21 02:07:54;;;;;;;68.80;28.13;;;;;;;-4.91;100.00;102754.20;1788500;79;20973;-62
2022/03/21 02:10:21;;;;;;;57.67;27.17;;;;;;;-4.97;100.00;102757.63;1810738;79;21004;-62
2022/03/21 02:12:50;;;;;;;60.83;27.67;;;;;;;-5.06;100.00;102751.72;1810511;79;21048;-62
2022/03/21 02:15:19;;;;;;;63.70;28.87;;;;;;;-5.10;100.00;102743.94;1810655;79;21055;-62
2022/03/21 02:17:49;;;;;;;63.50;26.73;;;;;;;-5.12;100.00;102742.58;1810563;79;21032;-62
2022/03/21 02:20:19;;;;;;;63.73;27.13;;;;;;;-5.10;100.00;102751.07;1809725;79;21520;-62
2022/03/21 02:23:01;;;;;;;65.43;28.37;;;;;;;-5.07;100.00;102746.23;1810556;79;21028;-61
2022/03/21 02:25:32;;;;;;;65.00;28.13;;;;;;;-5.07;100.00;102738.70;1810535;79;21081;-61
2022/03/21 02:28:03;;;;;;;60.57;26.83;;;;;;;-5.08;100.00;102736.09;1810884;79;21047;-61
2022/03/21 02:30:35;;;;;;;58.13;26.53;;;;;;;-5.11;100.00;102738.05;1810861;79;21055;-61
2022/03/21 02:33:04;;;;;;;63.73;26.90;;;;;;;-5.39;100.00;102737.25;1810811;79;21527;-62
2022/03/21 02:35:34;;;;;;;56.90;25.77;;;;;;;-5.18;100.00;102737.22;1810869;79;21024;-61
2022/03/21 02:38:02;;;;;;;63.50;26.00;;;;;;;-5.11;100.00;102730.88;1810937;79;21562;-61
2022/03/21 02:40:31;;;;;;;59.17;26.47;;;;;;;-5.08;100.00;102734.44;1810502;79;21067;-61
2022/03/21 02:42:58;;;;;;;64.00;28.20;;;;;;;-5.03;100.00;102733.43;1810764;79;21000;-62
2022/03/21 02:45:26;;;;;;;64.93;29.10;;;;;;;-5.05;100.00;102725.84;1810633;79;21024;-61
2022/03/21 02:47:54;;;;;;;70.13;29.73;;;;;;;-5.02;100.00;102728.04;1810723;79;21055;-62
2022/03/21 02:50:41;;;;;;;64.77;30.30;;;;;;;-5.09;100.00;102729.33;1810584;79;21028;-61
2022/03/21 02:53:11;;;;;;;64.27;28.97;;;;;;;-5.17;100.00;102721.39;1810714;79;21067;-62
2022/03/21 02:55:41;;;;;;;59.50;26.83;;;;;;;-5.14;100.00;102722.80;1810515;79;21056;-62
2022/03/21 02:58:08;;;;;;;64.50;28.17;;;;;;;-5.13;100.00;102711.99;1811004;79;20992;-62
2022/03/21 03:00:36;;;;;;;61.10;27.97;;;;;;;-5.14;100.00;102716.52;1810514;79;21024;-62
2022/03/21 03:03:03;;;;;;;65.60;29.53;;;;;;;-5.13;100.00;102711.10;1810849;79;21036;-62
2022/03/21 03:05:31;;;;;;;75.90;29.80;;;;;;;-5.17;100.00;102705.44;1810576;79;21044;-62
2022/03/21 03:07:58;;;;;;;74.87;33.77;;;;;;;-5.19;100.00;102715.41;1810735;79;21016;-62
2022/03/21 03:10:26;;;;;;;67.43;29.87;;;;;;;-5.28;100.00;102716.14;1810563;79;21000;-62
2022/03/21 03:12:54;;;;;;;63.53;29.27;;;;;;;-5.32;100.00;102712.59;1810879;79;21027;-62
2022/03/21 03:15:22;;;;;;;69.33;27.67;;;;;;;-5.29;100.00;102711.88;1810733;79;21020;-62
2022/03/21 03:17:50;;;;;;;65.53;28.00;;;;;;;-5.27;100.00;102707.45;1810553;79;21572;-62
2022/03/21 03:20:21;;;;;;;58.43;25.63;;;;;;;-5.26;100.00;102702.03;1810723;79;21013;-62
2022/03/21 03:22:49;;;;;;;64.37;25.73;;;;;;;-5.21;100.00;102693.48;1810764;79;21000;-62
2022/03/21 03:25:19;;;;;;;62.33;26.97;;;;;;;-5.16;100.00;102693.38;1810886;79;21082;-62
2022/03/21 03:27:47;;;;;;;59.20;26.33;;;;;;;-5.14;100.00;102693.92;1810769;79;21007;-62
2022/03/21 03:30:14;;;;;;;57.63;26.27;;;;;;;-5.15;100.00;102692.20;1810550;79;21487;-62
2022/03/21 03:32:44;;;;;;;51.40;23.90;;;;;;;-5.13;100.00;102697.29;1810455;79;21040;-62
2022/03/21 03:35:11;;;;;;;66.80;28.33;;;;;;;-5.20;100.00;102692.33;1810840;79;21000;-63
2022/03/21 03:37:39;;;;;;;64.40;26.80;;;;;;;-5.13;100.00;102691.91;1810964;79;21472;-62
2022/03/21 03:40:09;;;;;;;61.00;26.90;;;;;;;-5.13;100.00;102692.27;1810600;79;21027;-62
2022/03/21 03:42:36;;;;;;;48.23;23.83;;;;;;;-5.10;100.00;102688.28;1810801;79;20992;-62
2022/03/21 03:45:06;;;;;;;62.47;25.37;;;;;;;-5.14;100.00;102690.16;1810482;79;21017;-62
2022/03/21 03:47:33;;;;;;;61.33;24.93;;;;;;;-5.16;100.00;102688.34;1810822;79;21004;-61
2022/03/21 03:50:03;;;;;;;63.67;26.70;;;;;;;-5.07;100.00;102690.09;1810509;79;21028;-62
2022/03/21 03:52:30;;;;;;;58.47;27.13;;;;;;;-4.98;100.00;102685.98;1810788;79;21055;-62
2022/03/21 03:54:58;;;;;;;60.53;27.27;;;;;;;-4.95;100.00;102685.73;1810492;79;21012;-62
2022/03/21 03:57:26;;;;;;;57.77;28.00;;;;;;;-4.95;100.00;102680.72;1810757;79;21036;-62
2022/03/21 03:59:54;;;;;;;58.90;27.20;;;;;;;-4.97;100.00;102677.26;1810471;79;21016;-62
2022/03/21 04:02:21;;;;;;;71.27;28.73;;;;;;;-4.98;100.00;102677.20;1810902;79;21035;-62
2022/03/21 04:04:49;;;;;;;68.10;28.40;;;;;;;-4.94;100.00;102671.56;1810590;79;21063;-62
2022/03/21 04:07:19;;;;;;;61.10;27.93;;;;;;;-4.84;100.00;102672.53;1810578;79;21048;-62
2022/03/21 04:09:46;;;;;;;56.50;27.63;;;;;;;-4.84;100.00;102676.30;1810832;79;21064;-62
2022/03/21 04:12:14;;;;;;;61.50;26.80;;;;;;;-4.79;100.00;102672.37;1810451;79;21024;-62
2022/03/21 04:14:46;;;;;;;60.30;26.50;;;;;;;-4.71;100.00;102668.61;1810788;79;21016;-63
2022/03/21 04:17:13;;;;;;;54.10;26.67;;;;;;;-4.63;100.00;102663.60;1810459;79;21084;-62
2022/03/21 04:19:40;;;;;;;62.77;30.67;;;;;;;-4.54;100.00;102664.87;1810791;79;21075;-62
2022/03/21 04:22:07;;;;;;;68.37;31.70;;;;;;;-4.55;100.00;102667.78;1810458;79;21524;-62
2022/03/21 04:24:35;;;;;;;64.43;30.13;;;;;;;-4.61;100.00;102679.17;1810472;79;21020;-62
2022/03/21 04:27:04;;;;;;;66.33;29.57;;;;;;;-4.59;100.00;102675.94;1810560;79;21059;-62
2022/03/21 04:29:31;;;;;;;74.87;32.53;;;;;;;-4.52;100.00;102684.66;1810739;79;21496;-62
2022/03/21 04:31:59;;;;;;;73.40;35.40;;;;;;;-4.61;100.00;102683.80;1810629;79;21611;-62
2022/03/21 04:34:26;;;;;;;77.13;35.37;;;;;;;-4.76;100.00;102687.63;1810557;79;21458;-62
2022/03/21 04:36:54;;;;;;;69.63;33.17;;;;;;;-4.48;100.00;102685.30;1810466;79;21032;-62
2022/03/21 04:39:21;;;;;;;79.10;34.37;;;;;;;-4.44;100.00;102684.67;1810665;79;21032;-62
2022/03/21 04:41:51;;;;;;;76.40;34.13;;;;;;;-4.37;100.00;102685.48;1810499;79;21016;-62
2022/03/21 04:44:18;;;;;;;70.97;34.47;;;;;;;-4.25;100.00;102677.31;1810806;79;20992;-62
2022/03/21 04:46:45;;;;;;;74.57;33.80;;;;;;;-4.19;100.00;102670.48;1810610;79;21149;-62
2022/03/21 04:49:13;;;;;;;71.00;33.10;;;;;;;-4.18;100.00;102676.38;1810673;79;21080;-62
2022/03/21 04:51:40;;;;;;;81.50;33.50;;;;;;;-4.08;100.00;102678.16;1810681;79;21027;-62
2022/03/21 04:54:08;;;;;;;74.63;32.57;;;;;;;-3.94;100.00;102676.76;1810910;79;20969;-62
2022/03/21 04:56:36;;;;;;;74.40;33.70;;;;;;;-3.80;100.00;102674.94;1810851;79;21032;-61
2022/03/21 04:59:04;;;;;;;72.83;33.07;;;;;;;-3.67;100.00;102679.77;1810823;79;21461;-62
2022/03/21 05:01:33;;;;;;;71.53;32.63;;;;;;;-3.54;100.00;102673.30;1810954;79;21052;-62
2022/03/21 05:04:01;;;;;;;73.77;34.47;;;;;;;-3.70;100.00;102675.86;1810962;79;21033;-62
2022/03/21 05:06:28;;;;;;;72.77;33.33;;;;;;;-3.69;100.00;102675.05;1810906;79;20992;-62
2022/03/21 05:08:56;;;;;;;72.57;32.50;;;;;;;-3.35;100.00;102674.19;1811060;79;21063;-62
2022/03/21 05:11:25;;;;;;;70.60;33.07;;;;;;;-3.21;100.00;102679.48;1810596;79;21493;-62
2022/03/21 05:13:52;;;;;;;64.87;31.57;;;;;;;-3.06;100.00;102675.58;1810695;79;21103;-62
2022/03/21 05:16:20;;;;;;;64.90;30.60;;;;;;;-2.91;100.00;102672.90;1810711;79;21075;-62
2022/03/21 05:18:47;;;;;;;66.97;30.20;;;;;;;-2.80;100.00;102667.94;1810867;79;21538;-62
2022/03/21 05:21:15;;;;;;;65.07;30.70;;;;;;;-2.72;100.00;102657.80;1810561;79;21055;-62
2022/03/21 05:31:55;;;;;;;70.07;31.07;;;;;;;-2.06;100.00;102652.27;1766638;78;21027;-62
2022/03/21 05:37:10;;;;;;;62.37;29.43;;;;;;;-1.71;100.00;102649.94;1828487;78;21070;-62
2022/03/21 05:40:31;;;;;;;56.83;28.37;;;;;;;-1.49;100.00;102661.78;1828656;78;21003;-62
2022/03/21 05:42:08;;;;;;;61.87;28.67;;;;;;;-1.35;100.00;102657.28;1824685;78;21027;-62
2022/03/21 05:44:36;;;;;;;60.57;27.93;;;;;;;-1.22;100.00;102651.92;1828611;78;21066;-62
2022/03/21 05:47:04;;;;;;;55.77;27.93;;;;;;;-1.08;100.00;102657.89;1828466;78;21550;-62
2022/03/21 05:49:31;;;;;;;60.23;28.27;;;;;;;-0.96;100.00;102646.13;1828420;78;21054;-62
2022/03/21 05:51:59;;;;;;;59.80;28.17;;;;;;;-0.77;100.00;102645.14;1828361;78;21057;-62
2022/03/21 05:54:26;;;;;;;62.23;28.30;;;;;;;-0.65;100.00;102638.00;1828452;78;21023;-62
2022/03/21 05:56:55;;;;;;;63.67;29.93;;;;;;;-0.55;100.00;102633.73;1828448;78;21003;-62
2022/03/21 06:02:09;;;;;;;62.50;29.17;;;;;;;-0.04;100.00;102639.30;1828703;78;20999;-63
2022/03/21 06:04:37;;;;;;;61.27;29.03;;;;;;;0.14;100.00;102637.78;1828324;78;21019;-63
2022/03/21 06:07:05;;;;;;;54.53;25.85;;;;;;;0.45;100.00;102633.33;1828429;78;21027;-63
2022/03/21 06:09:33;;;;;;;56.10;27.40;;;;;;;0.76;100.00;102636.81;1828425;78;20992;-62
2022/03/21 06:12:01;;;;;;;54.42;26.87;;;;;;;0.97;100.00;102632.41;1828380;78;21046;-62
2022/03/21 06:14:28;;;;;;;50.85;25.70;;;;;;;1.23;100.00;102633.55;1828351;78;21023;-63
2022/03/21 06:16:55;;;;;;;41.55;21.87;;;;;;;1.68;100.00;102641.98;1828454;78;20999;-62
2022/03/21 06:19:23;;;;;;;47.60;21.87;;;;;;;2.19;100.00;102631.48;1828369;78;21023;-63
2022/03/21 06:21:50;;;;;;;43.83;21.35;;;;;;;2.73;100.00;102627.64;1828348;78;21039;-62
2022/03/21 06:24:19;;;;;;;36.42;18.95;;;;;;;3.23;94.61;102621.09;1828403;78;20995;-63
2022/03/21 06:26:47;;;;;;;38.78;18.37;;;;;;;3.68;90.01;102624.08;1828194;78;21094;-63
2022/03/21 06:29:15;;;;;;;36.05;17.87;;;;;;;3.93;87.60;102616.44;1828266;78;21027;-63
2022/03/21 06:31:43;;;;;;;32.95;17.48;;;;;;;4.13;84.88;102616.36;1828289;78;21038;-63
2022/03/21 06:34:11;;;;;;;35.25;18.02;;;;;;;4.42;82.87;102619.82;1828434;78;21039;-64
2022/03/21 06:36:39;;;;;;;33.35;17.12;;;;;;;4.58;81.25;102615.39;1828391;78;21488;-63
2022/03/21 06:39:07;;;;;;;33.23;16.00;;;;;;;4.81;78.95;102621.23;1828311;78;21023;-63
2022/03/21 06:41:34;;;;;;;33.10;17.37;;;;;;;5.05;77.75;102623.25;1828560;78;20984;-63
2022/03/21 06:44:03;;;;;;;32.85;16.62;;;;;;;5.30;76.15;102621.00;1828426;78;21033;-63
2022/03/21 06:46:31;;;;;;;31.00;17.77;;;;;;;5.50;74.42;102613.14;1828891;78;21011;-63
2022/03/21 06:48:59;;;;;;;31.65;16.82;;;;;;;5.75;72.97;102612.11;1828376;78;21077;-63
2022/03/21 06:51:28;;;;;;;35.05;17.62;;;;;;;5.92;71.79;102617.38;1827586;78;21359;-64
2022/03/21 06:53:55;;;;;;;33.25;17.23;;;;;;;6.12;70.51;102618.44;1827740;78;21471;-64
2022/03/21 06:56:23;;;;;;;32.42;15.90;;;;;;;6.24;70.15;102615.12;1827368;78;21078;-63
2022/03/21 06:58:50;;;;;;;33.55;16.37;;;;;;;6.43;68.02;102614.86;1827647;78;21066;-63
2022/03/21 07:01:19;;;;;;;30.00;16.37;;;;;;;6.59;67.81;102607.72;1827438;78;21015;-63
2022/03/21 07:03:46;;;;;;;27.52;15.75;;;;;;;6.73;67.00;102605.24;1827419;78;21035;-64
2022/03/21 07:06:13;;;;;;;31.12;15.45;;;;;;;6.87;65.89;102600.60;1827358;78;21062;-64
2022/03/21 07:08:41;;;;;;;29.98;15.20;;;;;;;7.02;64.11;102604.09;1827623;78;21043;-65
2022/03/21 07:11:12;;;;;;;28.23;14.78;;;;;;;7.21;63.19;102601.60;1827683;78;21511;-64
2022/03/21 07:13:39;;;;;;;29.72;14.70;;;;;;;7.36;61.95;102596.94;1827436;78;21020;-65
2022/03/21 07:16:10;;;;;;;23.45;13.15;;;;;;;7.45;61.27;102594.85;1827756;78;21047;-64
2022/03/21 07:18:38;;;;;;;23.42;12.93;;;;;;;7.54;59.55;102594.86;1827539;78;21073;-64
2022/03/21 07:21:07;;;;;;;21.52;12.15;;;;;;;7.65;58.71;102586.77;1827496;78;21082;-64
2022/03/21 07:23:35;;;;;;;27.62;14.07;;;;;;;7.75;58.12;102585.09;1827406;78;21038;-63
2022/03/21 07:26:02;;;;;;;20.05;12.15;;;;;;;7.82;57.53;102591.48;1827316;78;21054;-64
2022/03/21 07:28:30;;;;;;;25.57;13.05;;;;;;;7.92;57.72;102587.22;1816375;78;21051;-64
2022/03/21 07:30:58;;;;;;;23.92;13.30;;;;;;;8.05;56.90;102585.53;1794508;79;21005;-64
2022/03/21 07:33:26;;;;;;;25.37;12.88;;;;;;;8.10;57.07;102587.65;1797466;79;21039;-64
2022/03/21 07:35:53;;;;;;;25.57;13.15;;;;;;;8.15;56.96;102588.52;1761836;81;20985;-65
2022/03/21 07:38:22;;;;;;;24.37;13.28;;;;;;;8.26;56.82;102585.09;1797846;79;21021;-64
2022/03/21 07:40:49;;;;;;;25.50;12.58;;;;;;;8.34;56.37;102588.50;1794044;79;21115;-64
2022/03/21 07:43:17;;;;;;;24.25;14.10;;;;;;;8.30;55.63;102580.38;1750651;81;21081;-65
2022/03/21 07:48:31;;;;;;;24.67;14.25;;;;;;;8.39;55.79;102582.50;1795060;79;21134;-65
2022/03/21 07:51:00;;;;;;;28.77;14.40;;;;;;;8.50;55.84;102580.38;1803780;79;21083;-64
2022/03/21 07:53:27;;;;;;;33.80;14.30;;;;;;;8.64;55.68;102577.34;1798487;79;21056;-64
2022/03/21 07:55:55;;;;;;;24.12;14.33;;;;;;;8.80;55.23;102579.44;1743993;81;21033;-65
2022/03/21 07:58:22;;;;;;;28.52;15.25;;;;;;;8.92;55.00;102572.09;1797843;79;21021;-64
2022/03/21 08:00:50;;;;;;;30.08;15.63;;;;;;;8.98;55.21;102578.09;1795003;79;21013;-64
2022/03/21 08:03:18;;;;;;;32.55;16.60;;;;;;;9.02;54.93;102575.92;1788763;80;21068;-64
2022/03/21 08:05:45;;;;;;;34.30;17.32;;;;;;;8.80;55.34;102576.88;1788634;79;21022;-64
2022/03/21 08:08:12;;;;;;;25.35;13.38;;;;;;;8.90;55.82;102577.27;1788628;80;21037;-64
2022/03/21 08:10:40;;;;;;;24.60;13.75;;;;;;;8.93;55.68;102582.37;1788498;79;21080;-64
2022/03/21 08:13:09;;;;;;;26.30;12.58;;;;;;;8.85;56.38;102576.41;1788755;80;21036;-63
2022/03/21 08:15:37;;;;;;;24.37;12.78;;;;;;;8.93;56.70;102573.82;1789532;79;21040;-64
2022/03/21 08:18:05;;;;;;;27.95;13.95;;;;;;;9.07;56.58;102571.20;1817885;79;21020;-64
2022/03/21 08:20:35;;;;;;;21.25;12.30;;;;;;;9.33;56.34;102571.91;1762154;81;21062;-64
2022/03/21 08:23:08;;;;;;;24.95;13.68;;;;;;;9.48;55.92;102574.81;1761852;81;21098;-63
2022/03/21 08:25:36;;;;;;;26.75;14.55;;;;;;;9.24;56.49;102570.66;1793757;80;21043;-64
2022/03/21 08:28:06;;;;;;;27.22;13.72;;;;;;;9.17;56.73;102572.42;1743063;81;21064;-63
2022/03/21 08:30:35;;;;;;;25.57;13.60;;;;;;;9.38;56.57;102565.01;1790173;80;21100;-64
2022/03/21 08:33:06;;;;;;;26.17;13.72;;;;;;;9.32;56.57;102552.20;1806510;79;21008;-63
2022/03/21 08:35:37;;;;;;;23.18;12.90;;;;;;;9.47;56.56;102553.84;1836045;78;21046;-64
2022/03/21 08:38:07;;;;;;;22.30;12.35;;;;;;;9.54;56.49;102553.35;1803323;79;21004;-63
2022/03/21 08:40:37;;;;;;;23.75;12.53;;;;;;;9.61;56.09;102558.86;1836341;78;21503;-64
2022/03/21 08:43:06;;;;;;;24.63;12.50;;;;;;;9.67;56.20;102550.25;1792602;79;21006;-63
2022/03/21 08:45:34;;;;;;;24.50;13.68;;;;;;;9.76;56.04;102538.18;1787322;80;21567;-62
2022/03/21 08:48:04;;;;;;;24.40;13.30;;;;;;;9.89;55.93;102533.78;1793920;79;21082;-64
2022/03/21 08:50:34;;;;;;;21.27;12.43;;;;;;;10.00;55.82;102538.84;1810737;78;21011;-63
2022/03/21 08:53:02;;;;;;;24.30;13.32;;;;;;;10.22;55.04;102532.63;1798701;78;21040;-64
2022/03/21 08:55:30;;;;;;;18.70;10.85;;;;;;;10.36;54.71;102531.23;1812318;78;21036;-64
2022/03/21 08:57:58;;;;;;;16.90;9.45;;;;;;;10.46;53.29;102532.41;1794747;78;21045;-64
2022/03/21 09:00:27;;;;;;;18.35;8.68;;;;;;;10.60;52.93;102523.67;1773732;81;21036;-64
2022/03/21 09:02:55;;;;;;;12.98;8.00;;;;;;;10.77;51.96;102519.59;1780784;79;21458;-64
2022/03/21 09:05:23;;;;;;;14.00;8.03;;;;;;;10.99;51.52;102529.18;1810452;78;21005;-64
2022/03/21 09:07:51;;;;;;;14.70;7.37;;;;;;;10.87;50.83;102519.04;1812130;79;21041;-64
2022/03/21 09:10:20;;;;;;;11.78;6.03;;;;;;;11.01;50.66;102515.84;1802884;79;20995;-62
2022/03/21 09:12:48;;;;;;;11.57;5.87;;;;;;;11.20;49.79;102519.00;1836174;78;21050;-63
2022/03/21 09:15:16;;;;;;;15.95;6.17;;;;;;;11.28;49.79;102517.60;1803215;79;21547;-64
2022/03/21 09:17:45;;;;;;;11.08;5.87;;;;;;;11.26;49.82;102518.06;1836211;78;21022;-63
2022/03/21 09:20:14;;;;;;;9.45;5.60;;;;;;;11.22;49.98;102502.23;1803212;79;21062;-64
2022/03/21 09:22:41;;;;;;;11.90;5.90;;;;;;;11.32;49.95;102505.08;1836410;78;21491;-63
2022/03/21 09:25:09;;;;;;;9.63;5.28;;;;;;;11.24;49.77;102510.79;1796580;79;21022;-63
2022/03/21 09:27:41;;;;;;;9.95;5.22;;;;;;;11.36;49.87;102513.63;1770457;79;21426;-63
2022/03/21 09:30:09;;;;;;;9.83;5.33;;;;;;;11.40;49.78;102498.52;1769290;81;21097;-62
2022/03/21 09:32:36;;;;;;;9.70;4.90;;;;;;;11.66;49.39;102498.52;1776820;81;21055;-62
2022/03/21 09:35:07;;;;;;;8.48;4.97;;;;;;;11.93;48.86;102494.22;1765012;81;21104;-63
2022/03/21 09:37:35;;;;;;;9.23;4.90;;;;;;;12.00;48.67;102483.33;1776902;81;21051;-63
2022/03/21 09:40:03;;;;;;;11.60;4.53;;;;;;;12.14;48.02;102481.78;1765109;81;21070;-64
2022/03/21 09:42:31;;;;;;;8.25;4.45;;;;;;;12.22;47.64;102479.46;1776333;81;21039;-64
2022/03/21 09:44:59;;;;;;;7.03;4.47;;;;;;;12.43;47.52;102482.53;1764900;81;21069;-63
2022/03/21 09:50:14;;;;;;;11.10;3.90;;;;;;;12.23;46.76;102478.59;1764857;81;21010;-64
2022/03/21 09:52:43;;;;;;;9.45;3.98;;;;;;;12.32;46.20;102472.39;1776791;81;21004;-63
2022/03/21 09:55:10;;;;;;;6.20;3.27;;;;;;;12.35;45.92;102470.21;1779926;80;21484;-63
2022/03/21 09:57:38;;;;;;;9.88;3.80;;;;;;;12.25;45.98;102481.58;1788969;80;21060;-64
2022/03/21 10:00:07;;;;;;;7.83;3.52;;;;;;;12.30;46.11;102465.56;1760292;80;20997;-63
2022/03/21 10:02:41;;;;;;;7.37;3.75;;;;;;;12.45;46.15;102465.27;1788731;80;21088;-63
2022/03/21 10:05:28;;;;;;;6.75;3.90;;;;;;;12.43;46.38;102462.70;1788880;80;21080;-62
2022/03/21 10:08:30;;;;;;;5.45;3.40;;;;;;;12.49;46.49;102500.90;1788501;80;21036;-64
2022/03/21 10:11:04;;;;;;;9.60;3.85;;;;;;;12.47;46.60;102449.30;1788667;80;21552;-63
2022/03/21 10:13:35;;;;;;;8.93;3.58;;;;;;;12.56;46.38;102440.04;1788879;80;21052;-62
2022/03/21 10:16:17;;;;;;;8.50;3.70;;;;;;;12.69;45.64;102450.11;1788772;80;21048;-63
2022/03/21 10:18:58;;;;;;;7.37;3.67;;;;;;;12.77;45.48;102445.62;1788850;80;21020;-63
2022/03/21 10:21:34;;;;;;;9.30;3.58;;;;;;;12.94;45.60;102430.59;1788566;80;21536;-63
2022/03/21 10:24:05;;;;;;;10.28;3.42;;;;;;;12.78;45.21;102434.41;1787273;80;21052;-63
2022/03/21 10:26:36;;;;;;;7.47;3.52;;;;;;;12.83;45.58;102427.39;1788782;80;21088;-64
2022/03/21 10:29:13;;;;;;;8.85;3.80;;;;;;;13.04;45.67;102424.77;1792548;80;21090;-64
2022/03/21 10:31:53;;;;;;;12.75;3.67;;;;;;;13.09;45.95;102428.08;1790672;80;21101;-63
2022/03/21 10:34:23;;;;;;;10.40;3.87;;;;;;;13.25;46.57;102420.80;1819144;79;21033;-64
2022/03/21 10:37:06;;;;;;;12.10;3.87;;;;;;;13.19;46.68;102419.21;1818803;79;21060;-64
2022/03/21 10:39:40;;;;;;;9.25;3.58;;;;;;;12.96;47.76;102421.06;1819193;79;21013;-64
2022/03/21 10:42:10;;;;;;;10.88;3.58;;;;;;;12.92;46.96;102407.80;1819405;79;21064;-65
2022/03/21 10:44:38;;;;;;;6.42;3.00;;;;;;;13.02;46.80;102405.41;1819204;78;21025;-64
2022/03/21 10:47:09;;;;;;;7.12;3.35;;;;;;;13.13;46.52;102401.71;1819165;79;21501;-63
2022/03/21 10:49:43;;;;;;;9.13;3.45;;;;;;;13.30;46.58;102407.36;1819370;79;21048;-63
2022/03/21 10:52:17;;;;;;;9.45;3.52;;;;;;;13.13;46.72;102399.97;1819689;79;21547;-63
2022/03/21 10:54:50;;;;;;;8.63;3.55;;;;;;;13.01;46.92;102390.77;1819846;79;21012;-63
2022/03/21 10:57:36;;;;;;;8.38;3.90;;;;;;;13.22;47.67;102380.81;1819443;79;20997;-62
2022/03/21 11:00:22;;;;;;;9.08;4.20;;;;;;;13.17;47.40;102375.73;1819412;79;21544;-63
2022/03/21 11:03:05;;;;;;;9.18;4.12;;;;;;;13.35;46.91;102375.74;1819567;79;20969;-65
2022/03/21 11:05:37;;;;;;;8.93;3.42;;;;;;;13.37;47.13;102362.78;1819592;79;21076;-63
2022/03/21 11:08:15;;;;;;;8.83;3.55;;;;;;;13.45;47.76;102366.47;1819538;79;21025;-63
2022/03/21 11:10:44;;;;;;;6.47;3.60;;;;;;;13.47;47.82;102350.00;1819588;79;21001;-63
2022/03/21 11:13:14;;;;;;;12.82;3.67;;;;;;;13.74;47.57;102362.63;1819346;79;21626;-62
2022/03/21 11:15:42;;;;;;;7.47;3.20;;;;;;;13.59;47.39;102349.67;1819531;79;21037;-62
2022/03/21 11:18:10;;;;;;;7.35;3.67;;;;;;;13.57;47.80;102342.85;1819227;79;21092;-63
2022/03/21 11:20:39;;;;;;;7.78;3.40;;;;;;;13.77;48.23;102343.59;1819578;79;21068;-63
2022/03/21 11:23:06;;;;;;;9.13;3.60;;;;;;;13.76;48.03;102344.02;1819619;79;21581;-64
2022/03/21 11:25:38;;;;;;;10.10;3.25;;;;;;;13.99;47.68;102348.56;1819377;79;21560;-63
2022/03/21 11:28:23;;;;;;;5.85;3.22;;;;;;;14.03;47.71;102332.50;1819574;78;21045;-62
2022/03/21 11:31:05;;;;;;;12.88;3.45;;;;;;;13.98;47.91;102335.65;1820304;79;20982;-63
2022/03/21 11:34:04;;;;;;;9.23;3.08;;;;;;;14.00;47.83;102342.47;1821911;79;21083;-63
2022/03/21 11:36:34;;;;;;;7.10;2.70;;;;;;;13.89;48.26;102342.37;1821953;79;21060;-63
2022/03/21 11:39:04;;;;;;;7.35;2.92;;;;;;;14.02;49.07;102317.84;1794225;79;21088;-63
2022/03/21 11:41:33;;;;;;;8.45;3.02;;;;;;;14.08;48.98;102318.11;1821838;79;21433;-64